Spokane/Felts Field, Washington
Current Conditions -  °F | °C
As of 8:53 PM on Sunday 19 Oct 2014 (Local Time) from KSFF Reporting Station
Clear Clear  
Wind Chill: 54°   Ceiling: Unl
Heat Index: 54°   Visibility: 10mi
Dew Point: 47°   Wind: 3mph
Humidity: 77%   Direction: NA
Pressure: 29.8"   Gusts: NA
Location:  47.68°N, 117.32°W
Report Text: KSFF 200353Z AUTO VRB03KT 10SM CLR 12/08 A2980 RMK AO2 SLP088 T01220083
Loading
Personal Weather Stations






























Interactive Weather Map
Tropical Storm Tracking
New forecast layout! Learn more

10-Day Weather Forecast

Advertisements
Track Severe Weather on mobile